Terminal Aerodrome Forecast
Issued by NWS Shreveport, LA

Home | Current Version | Previous Version | Text Only | Print | Product List | Glossary On
Versions: 1 2 3 4 5 6 7 8 9 10 11 12 13
000
FTUS44 KSHV 261759
TAFMLU
TAF
KMLU 261759Z 2618/2718 02012KT P6SM BKN017
      TEMPO 2618/2620 SCT017 SCT070 BKN130
     FM262000 03011KT P6SM SCT020 SCT070 BKN130
     FM270000 03007KT P6SM SCT150 BKN250=

USA.gov is the U.S. government's official web portal to all federal, state and local government web resources and services.